Tekonsha, MI (49092)

8:00 AM EDT on March 28, 2015 (GMT -0400)
Tekonsha | | Change Station
CLOSE
Current Station
Personal Weather Station
Location: Tekonsha, MI
Elevation: 955 ft
Nearby Weather Stations

Elev 955 ft 42.08 °N, 84.97 °W | Updated 4 minutes ago

Clear
Clear
14.5 °F
Feels Like 14 °F
N
2.0
Wind Variable Wind from North
Gusts 4.0 mph

Today
High -- | Low -- °F
--% Chance of Precip.
Yesterday
High -- | Low -- °F
Precip. -- in
7:29 AM 8:00 PM
First Quarter, 62% visible
Pressure 30.24 in
Visibility 10.0 miles
Clouds Clear
Windchill 14 °F
Dew Point 10 °F
Humidity 82%
Rainfall 0.00 in
Snow Depth Not available.
UV 0 out of 12
Pollen 1.60 out of 12
Air Quality Not available.
Flu Activity Not available.
METAR KRMY 281153Z AUTO 00000KT 10SM CLR M11/M14 A3024 RMK AO2 T11121138

More Conditions Fewer Conditions

Pressure 30.24 in
Visibility 10.0 miles
Clouds Clear
Windchill 14 °F
Dew Point 10 °F
Humidity 82%
Rainfall 0.00 in
Snow Depth Not available.
UV 0 out of 12
Pollen 1.60 out of 12
Air Quality Not available.
Flu Activity Not available.
METAR KRMY 281153Z AUTO 00000KT 10SM CLR M11/M14 A3024 RMK AO2 T11121138

More Conditions Fewer Conditions

10-Day Weather Forecast

Almanac

Astronomy

Mar. 28, 2015 Rise Set
Actual Time
Civil Twilight
Nautical Twilight
Astronomical Twilight
Moon
Length of Visible Light
Length of Day
Tomorrow will be .
, % of the Moon is Illuminated

Today's Extremes

State Highs State Lows

Community

WunderPhotos

Upload Photos

1,808,964 photos uploaded!

WunderBlogs® & News

Nearby

Air Quality

  Air Quality AQ Index Pollutant
Not available.

Snow Depth

Station Depth Elevation

Earthquake Activity

City Distance Mag. Time & Date
Minimum magnitude displayed is 2.5.

Coastal Water Temperatures

Place Temperature

Stations

Nearby Weather Stations

Station Location Temp. Windchill Dew Point Humidity Wind Precip. Elev Updated Type